Time;durP1;ratioP1;P1;durP2;ratioP2;P2;SDS_P1;SDS_P2;PMS_P1;PMS_P2;Temp;Humidity;BMP_temperature;BMP_pressure;BME280_temperature;BME280_humidity;BME280_pressure;Samples;Min_cycle;Max_cycle;Signal;HPM_P1;HPM_P2
2021/08/25 04:01:20;;;;;;;24.35;20.88;;;;;;;21.99;62.47;94293.09;834283;71;30269;-75
2021/08/25 04:16:18;;;;;;;22.10;19.70;;;;;;;23.51;58.19;94275.80;828791;71;30479;-72
2021/08/25 04:31:55;;;;;;;28.40;22.33;;;;;;;23.74;59.50;94278.19;827575;71;27017;-74
2021/08/25 04:46:17;;;;;;;21.93;19.53;;;;;;;24.05;57.87;94274.12;828379;71;29734;-73
2021/08/25 05:01:18;;;;;;;16.10;14.50;;;;;;;23.90;55.58;94259.89;833883;71;33208;-73
2021/08/25 05:16:15;;;;;;;16.90;15.20;;;;;;;24.74;51.72;94248.16;828323;71;28718;-74
2021/08/25 05:46:45;;;;;;;19.40;17.33;;;;;;;26.28;47.10;94248.27;794311;72;31960;-73
2021/08/25 06:01:25;;;;;;;17.90;16.10;;;;;;;27.41;45.57;94261.75;823354;71;31745;-75
2021/08/25 06:16:20;;;;;;;17.30;15.57;;;;;;;;;;827468;71;30852;-73
2021/08/25 07:16:23;;;;;;;15.90;14.40;;;;;;;26.25;46.91;94239.03;833968;71;28723;-72
2021/08/25 07:31:25;;;;;;;26.17;22.23;;;;;;;25.28;50.99;94221.23;828267;71;30962;-73
2021/08/25 07:46:18;;;;;;;23.33;20.83;;;;;;;26.71;48.39;94227.19;833826;71;28796;-73
2021/08/25 08:01:16;;;;;;;25.33;21.70;;;;;;;26.66;48.53;94228.95;828194;71;29060;-72
2021/08/25 08:16:34;;;;;;;25.80;23.13;;;;;;;27.27;47.50;94216.30;827633;71;32035;-74
2021/08/25 08:31:17;;;;;;;26.53;22.33;;;;;;;;;;827436;71;31845;-75
2021/08/25 08:46:15;;;;;;;22.83;20.43;;;;;;;28.88;43.88;94213.90;828089;71;28745;-75
2021/08/25 09:16:37;;;;;;;23.60;21.30;;;;;;;29.03;43.72;94204.35;833978;71;29432;-72
2021/08/25 09:31:15;;;;;;;20.67;18.77;;;;;;;29.67;42.72;94195.63;833920;71;29483;-72
2021/08/25 09:46:15;;;;;;;21.03;19.03;;;;;;;29.70;41.87;94206.94;828193;71;32199;-73
2021/08/25 10:01:11;;;;;;;19.93;18.03;;;;;;;29.13;42.25;94212.12;834000;71;30210;-73
2021/08/25 10:16:16;;;;;;;24.93;20.87;;;;;;;28.31;49.00;94206.12;828962;71;29857;-75
2021/08/25 10:31:15;;;;;;;38.53;34.53;;;;;;;28.06;53.48;94184.88;827374;71;32747;-74
2021/08/25 10:46:25;;;;;;;23.47;21.13;;;;;;;29.01;52.01;94176.98;834023;71;29809;-76
2021/08/25 11:01:42;;;;;;;24.70;19.47;;;;;;;29.72;47.71;94145.10;823152;71;32795;-73
2021/08/25 11:16:26;;;;;;;22.27;20.03;;;;;;;29.85;45.32;94141.77;828152;71;30007;-76
2021/08/25 11:31:30;;;;;;;21.00;18.90;;;;;;;30.35;44.40;94149.52;828196;71;30005;-77
2021/08/25 11:46:25;;;;;;;20.90;18.83;;;;;;;31.05;41.33;94135.17;828251;71;29499;-77
2021/08/25 12:01:32;;;;;;;20.67;18.63;;;;;;;31.00;40.49;94092.91;830330;71;33054;-76
2021/08/25 12:16:32;;;;;;;23.07;20.77;;;;;;;28.88;47.05;94049.88;828337;71;32818;-77
2021/08/25 12:31:22;;;;;;;22.63;20.20;;;;;;;27.84;52.06;94034.71;827631;71;32684;-75
2021/08/25 12:46:26;;;;;;;22.80;20.40;;;;;;;27.83;51.99;94043.39;834705;71;31859;-79
2021/08/25 12:47:30;;;;;;;24.60;21.80;;;;;;;27.83;51.82;94041.30;822377;72;27031;-77
2021/08/25 13:01:26;;;;;;;23.03;20.90;;;;;;;27.39;51.11;94022.30;827928;71;33184;-77
2021/08/25 13:16:33;;;;;;;22.03;19.80;;;;;;;;;;828466;71;30297;-75
2021/08/25 13:31:15;;;;;;;23.20;20.90;;;;;;;27.52;52.96;94077.77;828176;71;29483;-77
2021/08/25 16:16:20;;;;;;;26.80;24.00;;;;;;;22.57;74.84;94061.79;828100;71;30339;-76
2021/08/25 16:31:17;;;;;;;26.07;23.47;;;;;;;22.68;74.14;94044.45;828414;71;29683;-77
2021/08/25 16:46:18;;;;;;;25.17;22.67;;;;;;;23.75;70.73;94051.98;835738;71;31024;-77
2021/08/25 17:16:11;;;;;;;23.87;21.47;;;;;;;24.49;66.02;94097.89;811890;71;29408;-74
2021/08/25 17:17:15;;;;;;;23.77;21.40;;;;;;;24.23;65.80;94087.01;804035;73;27069;-77
2021/08/25 17:31:09;;;;;;;28.97;25.67;;;;;;;22.26;74.93;94150.77;829137;71;29289;-78
2021/08/25 18:16:43;;;;;;;24.80;22.27;;;;;;;23.81;72.47;94193.84;787388;75;32579;-78
2021/08/25 18:46:35;;;;;;;25.53;22.90;;;;;;;24.98;68.34;94254.66;833751;71;32070;-76
2021/08/25 19:01:11;;;;;;;23.37;20.93;;;;;;;25.15;67.09;94286.66;828766;71;28763;-76
2021/08/25 19:16:24;;;;;;;23.60;21.20;;;;;;;25.30;65.81;94307.56;833996;71;28737;-77
2021/08/25 19:32:13;;;;;;;22.83;20.70;;;;;;;25.48;64.81;94306.95;848180;69;31845;-77
2021/08/25 19:46:23;;;;;;;23.53;21.03;;;;;;;25.53;64.60;94365.68;828288;71;29256;-75
2021/08/25 20:01:19;;;;;;;21.53;17.87;;;;;;;25.89;63.82;94333.34;834227;71;29259;-76
2021/08/25 20:16:17;;;;;;;20.47;18.27;;;;;;;25.25;63.63;94236.21;834057;71;29234;-76
2021/08/25 20:31:13;;;;;;;19.87;17.67;;;;;;;24.26;66.93;94294.84;821299;71;29258;-75
2021/08/25 20:46:17;;;;;;;20.00;17.63;;;;;;;24.86;65.89;94286.69;834124;71;32301;-74
2021/08/25 21:16:13;;;;;;;16.17;14.47;;;;;;;22.13;72.27;94265.76;835474;71;30439;-76
2021/08/25 21:31:24;;;;;;;15.28;12.35;;;;;;;21.44;73.98;94250.88;828287;71;29219;-76
2021/08/25 21:46:21;;;;;;;14.70;11.50;;;;;;;20.97;74.72;94243.56;828650;71;29239;-76
2021/08/25 22:01:40;;;;;;;13.45;11.00;;;;;;;20.65;75.92;94242.33;828393;71;28748;-76
2021/08/25 22:16:17;;;;;;;13.93;12.33;;;;;;;20.42;77.68;94244.43;829098;71;28750;-75
2021/08/25 22:31:15;;;;;;;15.53;12.07;;;;;;;20.28;77.93;94256.19;828651;71;29866;-77
2021/08/25 22:32:19;;;;;;;13.65;11.38;;;;;;;20.22;77.87;94262.37;809350;73;25275;-77
2021/08/25 22:46:18;;;;;;;12.13;10.35;;;;;;;20.15;77.37;94246.25;827807;71;31748;-76
2021/08/25 23:01:27;;;;;;;11.65;9.25;;;;;;;19.99;76.10;94234.36;835267;71;30282;-76
2021/08/25 23:16:46;;;;;;;10.72;9.40;;;;;;;19.84;77.19;94237.91;834220;71;32176;-77
2021/08/25 23:31:21;;;;;;;11.00;8.60;;;;;;;19.72;76.58;94226.84;828604;71;28752;-76
2021/08/25 23:46:19;;;;;;;8.65;7.85;;;;;;;19.55;75.60;94216.05;834418;71;28717;-77
